Ana Sayfa
METAR-TAF:

METAR-TAF

Havaalanları :

Ashland, Kentucky, Amerika Birleşik Devletleri

Enlem: 38-33-16N, Boylam: 082-44-17W, yükseklik: 166 m

Güncel hava durumu gözlemi

Rapor saat 06:56 UTC de 10 dakika önce yapıldı.
Rüzgar kuzey/kuzeybatıdan 7 kt
Sıcaklık -3°C
Nem 80%
Basınç 1019 hPa
Görüş mesafesi: 14.5 km
2100 ft yükseklikte az bulutlu
6500 ft yükseklikte parçalı çok bulutlu
hafif kar

METAR: KDWU 290656Z AUTO 33007KT 9SM -SN FEW021 BKN065 M03/M06 A3008 RMK AO2 SLP191 P0000 T10281056 FZRANO

Saat: 02:06 (07:06 UTC)


TAF: eksik

4.000'den fazla havaalanı için hava durumu gözlemleri ve tahminleri (METAR ve TAF raporları).

Kullanılabilir istasyonlar harita üzerinde sarı ve kırmızı noktalarla gösterilir.

İstasyonun adını görmek için fareyi noktanın üzerinde gezdirin.

Sonrasında hava gözlem ve tahminlerini görmek için tıklayın.

Haritayı değiştirmek için: yaklaştırmak için siyah artı işaretli yeşil düğmeye ve uzaklaştırmak için de eksi işaretli düğmeye hızla tıklayın; bitişik haritalar için yeşil okları kullanın.


METAR-TAF: